sensor_id;sensor_type;location;lat;lon;timestamp;P1;durP1;ratioP1;P2;durP2;ratioP2
39050;SDS011;24805;55.852;37.644;2022-11-20T00:02:36;16.35;;;8.13;;
39050;SDS011;24805;55.852;37.644;2022-11-20T00:07:38;12.73;;;6.88;;
39050;SDS011;24805;55.852;37.644;2022-11-20T00:12:40;11.93;;;7.38;;
39050;SDS011;24805;55.852;37.644;2022-11-20T00:17:42;12.55;;;8.55;;
39050;SDS011;24805;55.852;37.644;2022-11-20T00:22:44;12.52;;;7.47;;
39050;SDS011;24805;55.852;37.644;2022-11-20T00:27:46;12.13;;;7.22;;
39050;SDS011;24805;55.852;37.644;2022-11-20T00:32:48;12.75;;;7.82;;
39050;SDS011;24805;55.852;37.644;2022-11-20T00:37:50;8.38;;;5.95;;
39050;SDS011;24805;55.852;37.644;2022-11-20T00:42:52;10.93;;;7.15;;
39050;SDS011;24805;55.852;37.644;2022-11-20T00:47:54;10.77;;;6.93;;
39050;SDS011;24805;55.852;37.644;2022-11-20T00:52:56;10.25;;;6.60;;
39050;SDS011;24805;55.852;37.644;2022-11-20T00:57:58;11.32;;;6.13;;
39050;SDS011;24805;55.852;37.644;2022-11-20T01:03:05;10.02;;;5.60;;
39050;SDS011;24805;55.852;37.644;2022-11-20T01:08:07;9.05;;;5.75;;
39050;SDS011;24805;55.852;37.644;2022-11-20T01:13:09;9.10;;;5.70;;
39050;SDS011;24805;55.852;37.644;2022-11-20T01:18:29;9.60;;;5.85;;
39050;SDS011;24805;55.852;37.644;2022-11-20T01:23:32;7.97;;;5.60;;
39050;SDS011;24805;55.852;37.644;2022-11-20T01:28:35;10.80;;;5.63;;
39050;SDS011;24805;55.852;37.644;2022-11-20T01:33:38;9.38;;;5.65;;
39050;SDS011;24805;55.852;37.644;2022-11-20T01:38:41;8.82;;;4.78;;
39050;SDS011;24805;55.852;37.644;2022-11-20T01:43:44;10.57;;;5.82;;
39050;SDS011;24805;55.852;37.644;2022-11-20T01:48:48;10.15;;;5.60;;
39050;SDS011;24805;55.852;37.644;2022-11-20T01:53:52;10.05;;;6.43;;
39050;SDS011;24805;55.852;37.644;2022-11-20T01:58:58;10.50;;;6.40;;
39050;SDS011;24805;55.852;37.644;2022-11-20T02:04:03;9.10;;;5.70;;
39050;SDS011;24805;55.852;37.644;2022-11-20T02:09:05;10.40;;;5.00;;
39050;SDS011;24805;55.852;37.644;2022-11-20T02:14:07;9.20;;;5.30;;
39050;SDS011;24805;55.852;37.644;2022-11-20T02:19:32;8.38;;;5.70;;
39050;SDS011;24805;55.852;37.644;2022-11-20T02:24:33;10.05;;;6.68;;
39050;SDS011;24805;55.852;37.644;2022-11-20T02:34:45;9.65;;;5.63;;
39050;SDS011;24805;55.852;37.644;2022-11-20T02:39:47;9.63;;;5.57;;
39050;SDS011;24805;55.852;37.644;2022-11-20T02:44:51;8.65;;;5.57;;
39050;SDS011;24805;55.852;37.644;2022-11-20T02:49:53;8.68;;;5.45;;
39050;SDS011;24805;55.852;37.644;2022-11-20T02:54:55;9.85;;;6.10;;
39050;SDS011;24805;55.852;37.644;2022-11-20T02:59:57;8.93;;;5.13;;
39050;SDS011;24805;55.852;37.644;2022-11-20T03:04:59;9.32;;;5.82;;
39050;SDS011;24805;55.852;37.644;2022-11-20T03:10:03;7.15;;;4.50;;
39050;SDS011;24805;55.852;37.644;2022-11-20T03:15:06;9.00;;;6.00;;
39050;SDS011;24805;55.852;37.644;2022-11-20T03:20:08;9.77;;;5.43;;
39050;SDS011;24805;55.852;37.644;2022-11-20T03:25:11;8.82;;;5.32;;
39050;SDS011;24805;55.852;37.644;2022-11-20T03:30:14;12.48;;;6.00;;
39050;SDS011;24805;55.852;37.644;2022-11-20T03:35:16;9.82;;;5.95;;
39050;SDS011;24805;55.852;37.644;2022-11-20T03:40:19;12.07;;;6.43;;
39050;SDS011;24805;55.852;37.644;2022-11-20T03:45:21;10.15;;;6.25;;
39050;SDS011;24805;55.852;37.644;2022-11-20T03:50:23;10.13;;;6.13;;
39050;SDS011;24805;55.852;37.644;2022-11-20T03:55:25;10.00;;;5.63;;
39050;SDS011;24805;55.852;37.644;2022-11-20T04:00:27;10.27;;;6.10;;
39050;SDS011;24805;55.852;37.644;2022-11-20T04:05:29;10.43;;;6.68;;
39050;SDS011;24805;55.852;37.644;2022-11-20T04:10:31;11.50;;;6.65;;
39050;SDS011;24805;55.852;37.644;2022-11-20T04:15:33;10.85;;;6.30;;
39050;SDS011;24805;55.852;37.644;2022-11-20T04:20:39;11.20;;;6.38;;
39050;SDS011;24805;55.852;37.644;2022-11-20T04:25:41;10.73;;;6.25;;
39050;SDS011;24805;55.852;37.644;2022-11-20T04:30:43;11.07;;;6.50;;
39050;SDS011;24805;55.852;37.644;2022-11-20T04:35:45;10.38;;;6.25;;
39050;SDS011;24805;55.852;37.644;2022-11-20T04:40:49;10.52;;;6.45;;
39050;SDS011;24805;55.852;37.644;2022-11-20T04:45:51;12.13;;;7.03;;
39050;SDS011;24805;55.852;37.644;2022-11-20T04:50:55;10.45;;;6.13;;
39050;SDS011;24805;55.852;37.644;2022-11-20T04:56:01;10.18;;;6.28;;
39050;SDS011;24805;55.852;37.644;2022-11-20T05:01:11;10.80;;;6.38;;
39050;SDS011;24805;55.852;37.644;2022-11-20T05:06:19;12.73;;;7.35;;
39050;SDS011;24805;55.852;37.644;2022-11-20T05:11:22;12.80;;;6.90;;
39050;SDS011;24805;55.852;37.644;2022-11-20T05:16:25;13.40;;;6.95;;
39050;SDS011;24805;55.852;37.644;2022-11-20T05:21:29;12.13;;;7.43;;
39050;SDS011;24805;55.852;37.644;2022-11-20T05:26:33;10.00;;;6.40;;
39050;SDS011;24805;55.852;37.644;2022-11-20T05:31:35;11.95;;;7.85;;
39050;SDS011;24805;55.852;37.644;2022-11-20T05:36:37;14.77;;;8.32;;
39050;SDS011;24805;55.852;37.644;2022-11-20T05:41:39;14.30;;;7.32;;
39050;SDS011;24805;55.852;37.644;2022-11-20T05:46:41;12.45;;;7.78;;
39050;SDS011;24805;55.852;37.644;2022-11-20T05:51:43;11.82;;;6.53;;
39050;SDS011;24805;55.852;37.644;2022-11-20T05:56:45;13.40;;;7.95;;
39050;SDS011;24805;55.852;37.644;2022-11-20T06:01:47;12.43;;;7.47;;
39050;SDS011;24805;55.852;37.644;2022-11-20T06:06:49;13.75;;;8.23;;
39050;SDS011;24805;55.852;37.644;2022-11-20T06:11:52;14.80;;;7.75;;
39050;SDS011;24805;55.852;37.644;2022-11-20T06:16:54;12.95;;;7.88;;
39050;SDS011;24805;55.852;37.644;2022-11-20T06:21:56;13.05;;;7.82;;
39050;SDS011;24805;55.852;37.644;2022-11-20T06:26:58;13.88;;;7.50;;
39050;SDS011;24805;55.852;37.644;2022-11-20T06:32:00;10.93;;;6.75;;
39050;SDS011;24805;55.852;37.644;2022-11-20T06:37:02;12.60;;;8.18;;
39050;SDS011;24805;55.852;37.644;2022-11-20T06:42:04;13.88;;;8.50;;
39050;SDS011;24805;55.852;37.644;2022-11-20T06:47:06;13.85;;;8.35;;
39050;SDS011;24805;55.852;37.644;2022-11-20T06:52:09;14.63;;;8.55;;
39050;SDS011;24805;55.852;37.644;2022-11-20T06:57:10;11.55;;;7.00;;
39050;SDS011;24805;55.852;37.644;2022-11-20T07:02:14;12.93;;;8.07;;
39050;SDS011;24805;55.852;37.644;2022-11-20T07:07:16;13.27;;;7.28;;
39050;SDS011;24805;55.852;37.644;2022-11-20T07:12:18;12.95;;;8.32;;
39050;SDS011;24805;55.852;37.644;2022-11-20T07:17:20;16.25;;;8.90;;
39050;SDS011;24805;55.852;37.644;2022-11-20T07:22:22;13.77;;;8.18;;
39050;SDS011;24805;55.852;37.644;2022-11-20T07:27:24;11.30;;;7.45;;
39050;SDS011;24805;55.852;37.644;2022-11-20T07:32:26;14.38;;;8.75;;
39050;SDS011;24805;55.852;37.644;2022-11-20T07:37:28;11.63;;;7.35;;
39050;SDS011;24805;55.852;37.644;2022-11-20T07:42:30;11.75;;;8.07;;
39050;SDS011;24805;55.852;37.644;2022-11-20T07:47:36;11.55;;;7.60;;
39050;SDS011;24805;55.852;37.644;2022-11-20T07:52:38;14.40;;;8.65;;
39050;SDS011;24805;55.852;37.644;2022-11-20T07:57:40;13.90;;;8.90;;
39050;SDS011;24805;55.852;37.644;2022-11-20T08:02:43;13.65;;;8.52;;
39050;SDS011;24805;55.852;37.644;2022-11-20T08:07:45;14.73;;;9.15;;
39050;SDS011;24805;55.852;37.644;2022-11-20T08:12:48;13.35;;;8.95;;
39050;SDS011;24805;55.852;37.644;2022-11-20T08:18:13;13.30;;;8.38;;
39050;SDS011;24805;55.852;37.644;2022-11-20T08:23:33;17.67;;;9.55;;
39050;SDS011;24805;55.852;37.644;2022-11-20T08:28:35;15.10;;;8.25;;
39050;SDS011;24805;55.852;37.644;2022-11-20T08:33:37;13.00;;;9.00;;
39050;SDS011;24805;55.852;37.644;2022-11-20T08:38:39;16.80;;;9.23;;
39050;SDS011;24805;55.852;37.644;2022-11-20T08:43:43;18.80;;;10.50;;
39050;SDS011;24805;55.852;37.644;2022-11-20T08:48:46;16.33;;;10.20;;
39050;SDS011;24805;55.852;37.644;2022-11-20T08:53:49;15.93;;;9.48;;
39050;SDS011;24805;55.852;37.644;2022-11-20T08:58:51;16.02;;;8.65;;
39050;SDS011;24805;55.852;37.644;2022-11-20T09:04:13;15.10;;;8.82;;
39050;SDS011;24805;55.852;37.644;2022-11-20T09:09:16;18.17;;;10.43;;
39050;SDS011;24805;55.852;37.644;2022-11-20T09:14:19;17.55;;;9.88;;
39050;SDS011;24805;55.852;37.644;2022-11-20T09:19:26;18.50;;;9.75;;
39050;SDS011;24805;55.852;37.644;2022-11-20T09:24:41;15.77;;;9.82;;
39050;SDS011;24805;55.852;37.644;2022-11-20T09:29:44;16.25;;;10.32;;
39050;SDS011;24805;55.852;37.644;2022-11-20T09:34:46;17.13;;;11.07;;
39050;SDS011;24805;55.852;37.644;2022-11-20T09:39:48;19.98;;;12.07;;
39050;SDS011;24805;55.852;37.644;2022-11-20T09:45:15;20.77;;;10.48;;
39050;SDS011;24805;55.852;37.644;2022-11-20T09:50:32;21.75;;;11.10;;
39050;SDS011;24805;55.852;37.644;2022-11-20T09:55:40;17.75;;;10.52;;
39050;SDS011;24805;55.852;37.644;2022-11-20T10:00:42;19.73;;;11.52;;
39050;SDS011;24805;55.852;37.644;2022-11-20T10:05:47;23.73;;;12.50;;
39050;SDS011;24805;55.852;37.644;2022-11-20T10:27:55;25.10;;;14.15;;
39050;SDS011;24805;55.852;37.644;2022-11-20T10:33:04;22.10;;;12.57;;
39050;SDS011;24805;55.852;37.644;2022-11-20T10:43:32;18.88;;;11.85;;
39050;SDS011;24805;55.852;37.644;2022-11-20T10:48:34;22.17;;;12.15;;
39050;SDS011;24805;55.852;37.644;2022-11-20T10:53:51;25.10;;;14.07;;
39050;SDS011;24805;55.852;37.644;2022-11-20T11:04:03;31.50;;;14.07;;
39050;SDS011;24805;55.852;37.644;2022-11-20T11:09:17;24.30;;;13.88;;
39050;SDS011;24805;55.852;37.644;2022-11-20T11:14:25;25.38;;;14.50;;
39050;SDS011;24805;55.852;37.644;2022-11-20T11:19:28;28.42;;;14.32;;
39050;SDS011;24805;55.852;37.644;2022-11-20T11:24:30;32.05;;;15.85;;
39050;SDS011;24805;55.852;37.644;2022-11-20T11:29:44;30.55;;;15.15;;
39050;SDS011;24805;55.852;37.644;2022-11-20T11:35:00;41.63;;;19.30;;
39050;SDS011;24805;55.852;37.644;2022-11-20T11:40:09;35.08;;;17.05;;
39050;SDS011;24805;55.852;37.644;2022-11-20T11:45:28;23.17;;;12.65;;
39050;SDS011;24805;55.852;37.644;2022-11-20T11:50:30;23.50;;;12.27;;
39050;SDS011;24805;55.852;37.644;2022-11-20T11:55:43;22.80;;;12.60;;
39050;SDS011;24805;55.852;37.644;2022-11-20T12:00:57;27.45;;;14.20;;
39050;SDS011;24805;55.852;37.644;2022-11-20T12:06:06;15.40;;;9.80;;
39050;SDS011;24805;55.852;37.644;2022-11-20T12:11:18;17.30;;;8.55;;
39050;SDS011;24805;55.852;37.644;2022-11-20T12:16:26;16.02;;;8.77;;
39050;SDS011;24805;55.852;37.644;2022-11-20T12:21:31;13.00;;;8.52;;
39050;SDS011;24805;55.852;37.644;2022-11-20T12:26:51;13.20;;;8.65;;
39050;SDS011;24805;55.852;37.644;2022-11-20T12:32:03;15.88;;;9.30;;
39050;SDS011;24805;55.852;37.644;2022-11-20T12:37:33;15.30;;;9.38;;
39050;SDS011;24805;55.852;37.644;2022-11-20T12:42:52;13.50;;;7.85;;
39050;SDS011;24805;55.852;37.644;2022-11-20T13:10:24;15.88;;;9.85;;
39050;SDS011;24805;55.852;37.644;2022-11-20T13:20:41;16.92;;;9.85;;
39050;SDS011;24805;55.852;37.644;2022-11-20T13:25:46;28.45;;;18.15;;
39050;SDS011;24805;55.852;37.644;2022-11-20T13:30:50;15.07;;;9.40;;
39050;SDS011;24805;55.852;37.644;2022-11-20T13:35:55;16.77;;;9.40;;
39050;SDS011;24805;55.852;37.644;2022-11-20T13:41:08;14.27;;;8.73;;
39050;SDS011;24805;55.852;37.644;2022-11-20T13:46:35;14.97;;;8.77;;
39050;SDS011;24805;55.852;37.644;2022-11-20T14:02:37;16.73;;;9.47;;
39050;SDS011;24805;55.852;37.644;2022-11-20T14:07:40;16.25;;;9.95;;
39050;SDS011;24805;55.852;37.644;2022-11-20T14:12:44;17.98;;;9.70;;
39050;SDS011;24805;55.852;37.644;2022-11-20T14:17:46;14.20;;;8.80;;
39050;SDS011;24805;55.852;37.644;2022-11-20T14:22:52;13.52;;;8.85;;
39050;SDS011;24805;55.852;37.644;2022-11-20T14:27:56;15.05;;;9.32;;
39050;SDS011;24805;55.852;37.644;2022-11-20T14:33:01;16.10;;;9.68;;
39050;SDS011;24805;55.852;37.644;2022-11-20T14:38:08;15.18;;;9.52;;
39050;SDS011;24805;55.852;37.644;2022-11-20T14:48:23;17.20;;;10.20;;
39050;SDS011;24805;55.852;37.644;2022-11-20T14:53:31;21.67;;;13.07;;
39050;SDS011;24805;55.852;37.644;2022-11-20T14:58:33;16.50;;;9.77;;
39050;SDS011;24805;55.852;37.644;2022-11-20T15:03:36;16.70;;;10.32;;
39050;SDS011;24805;55.852;37.644;2022-11-20T15:08:50;15.07;;;9.55;;
39050;SDS011;24805;55.852;37.644;2022-11-20T15:13:53;15.32;;;9.57;;
39050;SDS011;24805;55.852;37.644;2022-11-20T15:18:55;15.20;;;9.38;;
39050;SDS011;24805;55.852;37.644;2022-11-20T15:23:58;14.35;;;8.93;;
39050;SDS011;24805;55.852;37.644;2022-11-20T15:29:00;16.02;;;9.00;;
39050;SDS011;24805;55.852;37.644;2022-11-20T15:34:04;15.32;;;9.40;;
39050;SDS011;24805;55.852;37.644;2022-11-20T15:39:09;16.27;;;9.63;;
39050;SDS011;24805;55.852;37.644;2022-11-20T15:44:11;13.65;;;8.75;;
39050;SDS011;24805;55.852;37.644;2022-11-20T15:49:14;15.75;;;9.18;;
39050;SDS011;24805;55.852;37.644;2022-11-20T15:54:18;14.88;;;9.38;;
39050;SDS011;24805;55.852;37.644;2022-11-20T15:59:23;13.35;;;8.32;;
39050;SDS011;24805;55.852;37.644;2022-11-20T16:04:25;14.00;;;8.48;;
39050;SDS011;24805;55.852;37.644;2022-11-20T16:09:27;13.13;;;7.75;;
39050;SDS011;24805;55.852;37.644;2022-11-20T16:14:29;12.98;;;8.40;;
39050;SDS011;24805;55.852;37.644;2022-11-20T16:19:50;14.32;;;9.13;;
39050;SDS011;24805;55.852;37.644;2022-11-20T16:24:52;13.85;;;7.85;;
39050;SDS011;24805;55.852;37.644;2022-11-20T16:29:54;11.15;;;7.47;;
39050;SDS011;24805;55.852;37.644;2022-11-20T16:34:57;12.57;;;8.02;;
39050;SDS011;24805;55.852;37.644;2022-11-20T16:39:59;15.23;;;9.18;;
39050;SDS011;24805;55.852;37.644;2022-11-20T16:45:01;13.20;;;9.13;;
39050;SDS011;24805;55.852;37.644;2022-11-20T16:50:04;14.80;;;9.13;;
39050;SDS011;24805;55.852;37.644;2022-11-20T16:55:09;14.65;;;8.48;;
39050;SDS011;24805;55.852;37.644;2022-11-20T17:00:11;14.40;;;8.15;;
39050;SDS011;24805;55.852;37.644;2022-11-20T17:05:14;10.15;;;6.68;;
39050;SDS011;24805;55.852;37.644;2022-11-20T17:10:16;11.70;;;7.10;;
39050;SDS011;24805;55.852;37.644;2022-11-20T17:15:18;12.85;;;6.95;;
39050;SDS011;24805;55.852;37.644;2022-11-20T17:20:20;21.45;;;12.13;;
39050;SDS011;24805;55.852;37.644;2022-11-20T17:25:22;12.88;;;7.45;;
39050;SDS011;24805;55.852;37.644;2022-11-20T17:30:25;12.60;;;6.82;;
39050;SDS011;24805;55.852;37.644;2022-11-20T17:35:27;10.77;;;6.95;;
39050;SDS011;24805;55.852;37.644;2022-11-20T17:40:29;14.60;;;8.73;;
39050;SDS011;24805;55.852;37.644;2022-11-20T17:45:34;8.48;;;5.50;;
39050;SDS011;24805;55.852;37.644;2022-11-20T17:50:36;10.07;;;6.13;;
39050;SDS011;24805;55.852;37.644;2022-11-20T17:55:40;11.10;;;6.70;;
39050;SDS011;24805;55.852;37.644;2022-11-20T18:01:04;10.40;;;7.03;;
39050;SDS011;24805;55.852;37.644;2022-11-20T18:06:14;13.25;;;6.93;;
39050;SDS011;24805;55.852;37.644;2022-11-20T18:11:24;11.70;;;6.90;;
39050;SDS011;24805;55.852;37.644;2022-11-20T18:16:28;10.93;;;7.22;;
39050;SDS011;24805;55.852;37.644;2022-11-20T18:21:32;12.32;;;7.10;;
39050;SDS011;24805;55.852;37.644;2022-11-20T18:26:34;12.57;;;7.47;;
39050;SDS011;24805;55.852;37.644;2022-11-20T18:31:44;14.55;;;8.73;;
39050;SDS011;24805;55.852;37.644;2022-11-20T18:36:46;15.48;;;8.98;;
39050;SDS011;24805;55.852;37.644;2022-11-20T18:41:48;18.85;;;10.43;;
39050;SDS011;24805;55.852;37.644;2022-11-20T18:47:13;24.63;;;11.00;;
39050;SDS011;24805;55.852;37.644;2022-11-20T18:52:22;21.00;;;12.15;;
39050;SDS011;24805;55.852;37.644;2022-11-20T18:57:26;19.95;;;11.38;;
39050;SDS011;24805;55.852;37.644;2022-11-20T19:02:29;26.70;;;13.95;;
39050;SDS011;24805;55.852;37.644;2022-11-20T19:07:31;27.85;;;14.60;;
39050;SDS011;24805;55.852;37.644;2022-11-20T19:12:33;29.55;;;16.35;;
39050;SDS011;24805;55.852;37.644;2022-11-20T19:17:35;29.88;;;14.75;;
39050;SDS011;24805;55.852;37.644;2022-11-20T19:22:38;35.33;;;16.50;;
39050;SDS011;24805;55.852;37.644;2022-11-20T19:27:40;34.00;;;16.67;;
39050;SDS011;24805;55.852;37.644;2022-11-20T19:32:42;32.03;;;16.17;;
39050;SDS011;24805;55.852;37.644;2022-11-20T19:37:44;28.42;;;14.75;;
39050;SDS011;24805;55.852;37.644;2022-11-20T19:42:46;23.70;;;13.27;;
39050;SDS011;24805;55.852;37.644;2022-11-20T19:47:49;24.27;;;13.43;;
39050;SDS011;24805;55.852;37.644;2022-11-20T19:53:08;23.80;;;13.73;;
39050;SDS011;24805;55.852;37.644;2022-11-20T19:58:12;21.95;;;13.07;;
39050;SDS011;24805;55.852;37.644;2022-11-20T20:03:15;23.60;;;13.45;;
39050;SDS011;24805;55.852;37.644;2022-11-20T20:08:18;24.42;;;13.95;;
39050;SDS011;24805;55.852;37.644;2022-11-20T20:13:20;25.40;;;13.43;;
39050;SDS011;24805;55.852;37.644;2022-11-20T20:18:22;23.42;;;13.40;;
39050;SDS011;24805;55.852;37.644;2022-11-20T20:23:24;21.52;;;13.30;;
39050;SDS011;24805;55.852;37.644;2022-11-20T20:28:26;23.50;;;13.20;;
39050;SDS011;24805;55.852;37.644;2022-11-20T20:33:28;22.13;;;12.85;;
39050;SDS011;24805;55.852;37.644;2022-11-20T20:38:31;22.95;;;12.00;;
39050;SDS011;24805;55.852;37.644;2022-11-20T20:43:34;21.27;;;13.23;;
39050;SDS011;24805;55.852;37.644;2022-11-20T20:48:56;24.88;;;13.40;;
39050;SDS011;24805;55.852;37.644;2022-11-20T20:54:00;22.92;;;13.55;;
39050;SDS011;24805;55.852;37.644;2022-11-20T20:59:03;26.00;;;13.23;;
39050;SDS011;24805;55.852;37.644;2022-11-20T21:04:05;30.73;;;17.80;;
39050;SDS011;24805;55.852;37.644;2022-11-20T21:09:08;21.58;;;11.90;;
39050;SDS011;24805;55.852;37.644;2022-11-20T21:14:10;25.05;;;12.77;;
39050;SDS011;24805;55.852;37.644;2022-11-20T21:19:12;24.48;;;12.68;;
39050;SDS011;24805;55.852;37.644;2022-11-20T21:24:14;22.27;;;12.00;;
39050;SDS011;24805;55.852;37.644;2022-11-20T21:29:19;20.67;;;12.48;;
39050;SDS011;24805;55.852;37.644;2022-11-20T21:34:22;20.80;;;11.43;;
39050;SDS011;24805;55.852;37.644;2022-11-20T21:39:26;22.17;;;11.38;;
39050;SDS011;24805;55.852;37.644;2022-11-20T21:44:30;21.60;;;11.65;;
39050;SDS011;24805;55.852;37.644;2022-11-20T21:49:33;20.58;;;11.60;;
39050;SDS011;24805;55.852;37.644;2022-11-20T21:54:35;19.50;;;11.40;;
39050;SDS011;24805;55.852;37.644;2022-11-20T21:59:37;22.30;;;10.98;;
39050;SDS011;24805;55.852;37.644;2022-11-20T22:04:39;20.02;;;11.35;;
39050;SDS011;24805;55.852;37.644;2022-11-20T22:09:43;20.02;;;12.10;;
39050;SDS011;24805;55.852;37.644;2022-11-20T22:14:46;18.73;;;11.45;;
39050;SDS011;24805;55.852;37.644;2022-11-20T22:19:48;19.45;;;11.25;;
39050;SDS011;24805;55.852;37.644;2022-11-20T22:24:50;22.52;;;13.00;;
39050;SDS011;24805;55.852;37.644;2022-11-20T22:29:52;24.88;;;13.45;;
39050;SDS011;24805;55.852;37.644;2022-11-20T22:34:54;25.17;;;11.95;;
39050;SDS011;24805;55.852;37.644;2022-11-20T22:39:56;21.42;;;12.02;;
39050;SDS011;24805;55.852;37.644;2022-11-20T22:44:58;23.10;;;12.30;;
39050;SDS011;24805;55.852;37.644;2022-11-20T22:50:00;25.65;;;12.05;;
39050;SDS011;24805;55.852;37.644;2022-11-20T22:55:03;18.73;;;11.23;;
39050;SDS011;24805;55.852;37.644;2022-11-20T23:00:06;22.13;;;10.70;;
39050;SDS011;24805;55.852;37.644;2022-11-20T23:05:08;22.05;;;11.85;;
39050;SDS011;24805;55.852;37.644;2022-11-20T23:10:11;20.13;;;10.82;;
39050;SDS011;24805;55.852;37.644;2022-11-20T23:15:13;21.13;;;10.98;;
39050;SDS011;24805;55.852;37.644;2022-11-20T23:20:15;20.63;;;10.43;;
39050;SDS011;24805;55.852;37.644;2022-11-20T23:25:17;24.13;;;12.65;;
39050;SDS011;24805;55.852;37.644;2022-11-20T23:30:20;24.85;;;11.48;;
39050;SDS011;24805;55.852;37.644;2022-11-20T23:35:22;24.48;;;13.15;;
39050;SDS011;24805;55.852;37.644;2022-11-20T23:40:24;30.77;;;13.80;;
39050;SDS011;24805;55.852;37.644;2022-11-20T23:45:26;23.77;;;11.90;;
39050;SDS011;24805;55.852;37.644;2022-11-20T23:50:28;29.55;;;12.77;;
39050;SDS011;24805;55.852;37.644;2022-11-20T23:55:30;20.52;;;10.95;;
